Data for 02/08/2005

Time Sea-Level Adjusted Pressure Absolute Pressure Temperature Relative Humidity Dew Point   
(mb) (inHg) (mb) (inHg) (C) (F) (%) (C) (F)
00:05 1016 30 845 24.95 -7.4 18.8 78 -10.6 12.9
00:10 1016 30 845 24.95 -7.5 18.6 78 -10.7 12.8
00:15 1016 30 845 24.95 -7.6 18.4 78 -10.7 12.7
00:20 1016 30 845 24.95 -7.4 18.7 77 -10.8 12.6
00:25 1016 30 845 24.95 -7.2 19 77 -10.7 12.8
00:30 1016 30 845 24.95 -7.1 19.1 76 -10.7 12.7
00:35 1016 30 845 24.95 -7.1 19.2 76 -10.7 12.7
00:40 1016 30 845 24.95 -7 19.3 76 -10.6 12.9
00:45 1016 30 845 24.95 -7.1 19.2 76 -10.6 13
00:50 1016 30 845 24.95 -7 19.4 77 -10.4 13.3
00:55 1016 30 845 24.95 -7 19.4 76 -10.5 13.1
01:00 1016 30 845 24.95 -7 19.5 77 -10.4 13.3
01:05 1016 30 845 24.95 -6.8 19.7 76 -10.4 13.3
01:10 1016 30 845 24.95 -6.8 19.8 76 -10.3 13.4
01:15 1016 30 845 24.95 -6.8 19.7 76 -10.4 13.3
01:20 1016 30 845 24.95 -6.7 19.9 76 -10.3 13.5
01:25 1016 30 845 24.95 -6.7 20 76 -10.2 13.7
01:30 1016 30 845 24.95 -6.8 19.8 77 -10.2 13.7
01:35 1015 29.97 845 24.95 -6.8 19.7 77 -10.2 13.6
01:40 1015 29.97 845 24.95 -6.8 19.7 77 -10.2 13.6
01:45 1015 29.97 845 24.95 -6.8 19.8 78 -10 13.9
01:50 1015 29.97 845 24.95 -6.7 20 78 -9.9 14.2
01:55 1015 29.97 844 24.92 -6.6 20.2 78 -9.7 14.5
02:00 1015 29.97 844 24.92 -6.5 20.3 78 -9.6 14.6
02:05 1015 29.97 844 24.92 -6.4 20.4 79 -9.4 15
02:10 1015 29.97 844 24.92 -6.5 20.3 80 -9.4 15.1
02:15 1015 29.97 844 24.92 -6.5 20.3 81 -9.3 15.2
02:20 1015 29.97 844 24.92 -6.7 19.9 81 -9.4 15.1
02:25 1015 29.97 844 24.92 -6.8 19.7 82 -9.4 15.1
02:30 1015 29.97 844 24.92 -6.8 19.7 82 -9.4 15.1
02:35 1015 29.97 844 24.92 -6.9 19.6 83 -9.4 15.1
02:40 1015 29.97 844 24.92 -7.1 19.3 82 -9.7 14.6
02:45 1015 29.97 844 24.92 -7.3 18.9 82 -9.8 14.4
02:50 1015 29.97 844 24.92 -7.4 18.7 83 -9.8 14.4
02:55 1015 29.97 844 24.92 -7.3 18.9 84 -9.6 14.7
03:00 1015 29.97 844 24.92 -7 19.4 83 -9.4 15.1
03:05 1015 29.97 844 24.92 -6.6 20.1 83 -9.1 15.6
03:10 1015 29.97 844 24.92 -6.6 20.1 84 -8.8 16.1
03:15 1015 29.97 844 24.92 -6.5 20.3 84 -8.8 16.1
03:20 1015 29.97 844 24.92 -6.5 20.4 83 -9 15.9
03:25 1015 29.97 844 24.92 -6.2 20.8 81 -9 15.8
03:30 1015 29.97 844 24.92 -6 21.2 81 -8.8 16.2
03:35 1015 29.97 844 24.92 -5.9 21.4 81 -8.7 16.4
03:40 1015 29.97 844 24.92 -5.9 21.3 82 -8.5 16.6
03:45 1015 29.97 844 24.92 -6 21.2 82 -8.5 16.6
03:50 1015 29.97 844 24.92 -6 21.2 82 -8.7 16.4
03:55 1015 29.97 844 24.92 -5.7 21.7 80 -8.7 16.4
04:00 1015 29.97 844 24.92 -5.5 22.1 78 -8.8 16.2
04:05 1015 29.97 844 24.92 -5.1 22.8 77 -8.5 16.7
04:10 1015 29.97 844 24.92 -5.2 22.7 78 -8.5 16.7
04:15 1015 29.97 844 24.92 -5.2 22.6 78 -8.5 16.7
04:20 1015 29.97 844 24.92 -5.3 22.5 78 -8.6 16.6
04:25 1015 29.97 844 24.92 -5.3 22.5 79 -8.5 16.7
04:30 1015 29.97 844 24.92 -5.4 22.3 80 -8.3 17.1
04:35 1015 29.97 844 24.92 -5.5 22 80 -8.5 16.7
04:40 1015 29.97 844 24.92 -5.6 22 80 -8.5 16.8
04:45 1015 29.97 844 24.92 -5.7 21.7 81 -8.4 16.9
04:50 1015 29.97 844 24.92 -5.9 21.3 82 -8.6 16.5
04:55 1015 29.97 844 24.92 -6.3 20.7 83 -8.8 16.2
05:00 1015 29.97 844 24.92 -6.3 20.7 81 -9.1 15.7
05:05 1015 29.97 844 24.92 -6.2 20.9 81 -9 15.8
05:10 1015 29.97 844 24.92 -6 21.1 79 -9.1 15.7
05:15 1015 29.97 844 24.92 -5.9 21.4 80 -8.9 16
05:20 1015 29.97 844 24.92 -5.9 21.4 78 -9.1 15.7
05:25 1015 29.97 844 24.92 -5.7 21.7 76 -9.3 15.3
05:30 1015 29.97 844 24.92 -5.6 22 75 -9.4 15.1
05:35 1015 29.97 844 24.92 -5.4 22.2 74 -9.3 15.2
05:40 1015 29.97 844 24.92 -5.4 22.3 74 -9.3 15.2
05:45 1015 29.97 844 24.92 -5.3 22.4 74 -9.3 15.3
05:50 1015 29.97 844 24.92 -5.4 22.3 75 -9.2 15.4
05:55 1015 29.97 844 24.92 -5.3 22.4 75 -9.2 15.5
06:00 1015 29.97 844 24.92 -5.2 22.6 75 -9.1 15.7
06:05 1015 29.97 844 24.92 -5.2 22.6 75 -9 15.8
06:10 1015 29.97 844 24.92 -5.1 22.8 75 -8.9 16
06:15 1015 29.97 844 24.92 -5.1 22.7 75 -8.9 16
06:20 1015 29.97 844 24.92 -4.9 23.1 74 -8.8 16.2
06:25 1015 29.97 845 24.95 -4.9 23.2 74 -8.9 15.9
06:30 1015 29.97 845 24.95 -4.8 23.4 73 -8.8 16.1
06:35 1015 29.97 845 24.95 -4.7 23.5 72 -9 15.8
06:40 1015 29.97 845 24.95 -4.6 23.8 70 -9.2 15.5
06:45 1015 29.97 845 24.95 -4.4 24.1 69 -9.2 15.5
06:50 1016 30 845 24.95 -4.3 24.3 69 -9.1 15.5
06:55 1016 30 845 24.95 -4.3 24.3 69 -9.2 15.5
07:00 1016 30 845 24.95 -4.2 24.4 69 -9.1 15.6
07:05 1016 30 845 24.95 -4.2 24.4 69 -9.2 15.5
07:10 1016 30 845 24.95 -4.2 24.4 69 -9.2 15.5
07:15 1016 30 845 24.95 -4.3 24.2 69 -9.2 15.4
07:20 1016 30 845 24.95 -4.2 24.4 68 -9.2 15.4
07:25 1016 30 845 24.95 -4.2 24.4 68 -9.2 15.4
07:30 1016 30 845 24.95 -4.2 24.4 69 -9.1 15.6
07:35 1016 30 845 24.95 -4.2 24.4 69 -9.1 15.6
07:40 1016 30 845 24.95 -4.3 24.4 69 -9.1 15.7
07:45 1016 30 845 24.95 -4.3 24.3 69 -9 15.7
07:50 1016 30 845 24.95 -4.2 24.4 70 -8.9 16
07:55 1016 30 845 24.95 -4.2 24.4 70 -8.9 16
08:00 1016 30 845 24.95 -4.2 24.5 68 -9.2 15.5
08:05 1016 30 845 24.95 -4.2 24.5 69 -9 15.8
08:10 1016 30 845 24.95 -4.1 24.7 68 -9.1 15.7
08:15 1016 30 845 24.95 -4 24.7 68 -9.1 15.5
08:20 1016 30 845 24.95 -4 24.7 67 -9.3 15.2
08:25 1016 30 845 24.95 -4.2 24.5 67 -9.3 15.2
08:30 1016 30 845 24.95 -4.1 24.5 67 -9.4 15.1
08:35 1016 30 845 24.95 -4 24.7 67 -9.3 15.3
08:40 1016 30 845 24.95 -4 24.9 66 -9.5 15
08:45 1016 30 846 24.98 -4 24.7 67 -9.3 15.3
08:50 1016 30 846 24.98 -4.2 24.5 68 -9.3 15.3
08:55 1016 30 846 24.98 -4.4 24.1 70 -9.1 15.7
09:00 1016 30 846 24.98 -4.7 23.5 72 -9 15.8
09:05 1016 30 846 24.98 -4.9 23.1 73 -9.1 15.6
09:10 1017 30.03 846 24.98 -4.8 23.3 72 -9.1 15.6
09:15 1017 30.03 846 24.98 -4.7 23.5 71 -9.2 15.5
09:20 1017 30.03 846 24.98 -4.6 23.6 70 -9.3 15.2
09:25 1017 30.03 846 24.98 -4.3 24.3 67 -9.5 14.9
09:30 1017 30.03 846 24.98 -4.3 24.3 68 -9.4 15.1
09:35 1017 30.03 846 24.98 -4.4 24.1 68 -9.4 15
09:40 1017 30.03 846 24.98 -4.4 24.2 66 -9.7 14.5
09:45 1017 30.03 846 24.98 -4 24.9 63 -10 14.1
09:50 1017 30.03 846 24.98 -4 24.8 64 -9.8 14.3
09:55 1017 30.03 846 24.98 -2.9 26.8 56 -10.4 13.3
10:00 1017 30.03 846 24.98 -2.1 28.3 54 -10.2 13.6
10:05 1017 30.03 846 24.98 -2 28.4 54 -10 14
10:10 1017 30.03 846 24.98 -2 28.3 56 -9.7 14.5
10:15 1017 30.03 846 24.98 -2.9 26.7 58 -10.1 13.8
10:20 1017 30.03 846 24.98 -3.2 26.3 59 -10.1 13.8
10:25 1017 30.03 846 24.98 -2.3 27.8 55 -10.1 13.8
10:30 1017 30.03 846 24.98 -1.2 29.9 52 -9.8 14.4
10:35 1017 30.03 846 24.98 -0.6 30.9 53 -9.1 15.5
10:40 1017 30.03 846 24.98 0.2 32.3 49 -9.4 15.1
10:45 1017 30.03 846 24.98 1.1 34 43 -10 14
10:50 1017 30.03 846 24.98 1 33.8 43 -10.2 13.6
10:55 1017 30.03 846 24.98 1 33.8 41 -10.8 12.6
11:00 1017 30.03 846 24.98 1 33.8 40 -11.1 12
11:05 1017 30.03 846 24.98 1.3 34.3 40 -10.8 12.5
11:10 1017 30.03 846 24.98 1 33.9 41 -10.8 12.6
11:15 1017 30.03 846 24.98 1.3 34.3 40 -11 12.2
11:20 1017 30.03 846 24.98 1.3 34.3 39 -11.3 11.6
11:25 1017 30.03 846 24.98 0.9 33.7 39 -11.4 11.5
11:30 1017 30.03 846 24.98 1.1 34 39 -11.4 11.5
11:35 1017 30.03 846 24.98 1 33.9 41 -10.8 12.6
11:40 1017 30.03 846 24.98 1.1 33.9 42 -10.6 13
11:45 1017 30.03 846 24.98 1.7 35 41 -10.4 13.3
11:50 1017 30.03 846 24.98 1.9 35.4 40 -10.3 13.4
11:55 1017 30.03 846 24.98 1.9 35.4 37 -11.3 11.6
12:00 1017 30.03 846 24.98 1.3 34.4 37 -11.9 10.6
12:05 1017 30.03 846 24.98 1 33.8 39 -11.3 11.6
12:10 1017 30.03 846 24.98 0.9 33.6 39 -11.6 11.1
12:15 1017 30.03 846 24.98 0.6 33.1 41 -11.1 12
12:20 1017 30.03 846 24.98 0.6 33.1 44 -10.3 13.5
12:25 1017 30.03 846 24.98 0.4 32.6 47 -9.7 14.6
12:30 1017 30.03 846 24.98 0.3 32.5 45 -10.4 13.4
12:35 1017 30.03 846 24.98 0.8 33.4 43 -10.4 13.3
12:40 1017 30.03 846 24.98 1.1 33.9 43 -10.2 13.7
12:45 1017 30.03 846 24.98 1.3 34.3 42 -10.2 13.6
12:50 1017 30.03 846 24.98 1.1 33.9 42 -10.5 13.1
12:55 1017 30.03 846 24.98 1.1 34 40 -10.9 12.4
13:00 1017 30.03 846 24.98 1.2 34.2 40 -10.9 12.4
13:05 1017 30.03 846 24.98 1.5 34.6 41 -10.3 13.5
13:10 1017 30.03 846 24.98 1.4 34.6 40 -10.6 12.9
13:15 1017 30.03 846 24.98 1.2 34.1 40 -10.9 12.4
13:20 1017 30.03 846 24.98 0.9 33.6 42 -10.7 12.7
13:25 1017 30.03 846 24.98 0.5 33 43 -10.6 12.9
13:30 1017 30.03 846 24.98 0.7 33.2 43 -10.6 12.9
13:35 1017 30.03 846 24.98 0.5 32.8 42 -10.9 12.4
13:40 1017 30.03 846 24.98 0.5 32.9 42 -10.9 12.4
13:45 1017 30.03 846 24.98 0.6 33 42 -11 12.1
13:50 1017 30.03 846 24.98 0.6 33.1 41 -11.1 12
13:55 1017 30.03 846 24.98 0.6 33.1 39 -11.9 10.6
14:00 1017 30.03 846 24.98 0.4 32.8 40 -11.6 11.2
14:05 1017 30.03 846 24.98 0.6 33 40 -11.4 11.4
14:10 1017 30.03 846 24.98 0.7 33.2 40 -11.6 11.2
14:15 1017 30.03 846 24.98 0.6 33 43 -10.6 12.9
14:20 1017 30.03 846 24.98 0.4 32.6 46 -9.9 14.2
14:25 1017 30.03 846 24.98 0.1 32.2 47 -9.9 14.1
14:30 1017 30.03 846 24.98 0.3 32.5 46 -10.1 13.8
14:35 1017 30.03 846 24.98 0.2 32.3 45 -10.3 13.5
14:40 1017 30.03 846 24.98 0.1 32.2 46 -10.1 13.8
14:45 1017 30.03 846 24.98 -0 32 47 -10.1 13.9
14:50 1017 30.03 846 24.98 0.1 32.2 47 -9.9 14.2
14:55 1017 30.03 846 24.98 -0 32 47 -10.1 13.9
15:00 1017 30.03 846 24.98 -0.3 31.4 47 -10.2 13.6
15:05 1017 30.03 846 24.98 -0.1 31.8 47 -10 14
15:10 1017 30.03 846 24.98 -0 31.9 46 -10.2 13.6
15:15 1017 30.03 846 24.98 -0 31.9 47 -10.1 13.9
15:20 1017 30.03 846 24.98 0.1 32.2 46 -10.2 13.6
15:25 1017 30.03 846 24.98 0.2 32.3 45 -10.5 13.1
15:30 1017 30.03 846 24.98 0.1 32.2 46 -10.2 13.6
15:35 1017 30.03 846 24.98 -0 32 45 -10.5 13.1
15:40 1017 30.03 847 25.01 -0 32 47 -10.1 13.8
15:45 1017 30.03 847 25.01 -0 32 45 -10.6 12.9
15:50 1017 30.03 847 25.01 -0.1 31.9 45 -10.6 13
15:55 1017 30.03 847 25.01 -0.1 31.8 46 -10.4 13.2
16:00 1017 30.03 847 25.01 -0.2 31.6 46 -10.5 13
16:05 1017 30.03 846 24.98 -0.2 31.6 46 -10.6 13
16:10 1017 30.03 847 25.01 -0.1 31.7 46 -10.3 13.5
16:15 1017 30.03 847 25.01 -0.2 31.7 46 -10.3 13.4
16:20 1017 30.03 847 25.01 -0.2 31.7 47 -10.1 13.9
16:25 1017 30.03 847 25.01 -0.1 31.8 47 -10 13.9
16:30 1017 30.03 847 25.01 -0.1 31.8 46 -10.4 13.3
16:35 1018 30.06 847 25.01 -0.1 31.7 47 -10.2 13.6
16:40 1018 30.06 847 25.01 -0.1 31.9 49 -9.6 14.6
16:45 1018 30.06 847 25.01 -0.6 31 51 -9.5 15
16:50 1018 30.06 847 25.01 -1 30.1 53 -9.4 15.1
16:55 1018 30.06 847 25.01 -0.9 30.5 52 -9.6 14.7
17:00 1018 30.06 847 25.01 -0.7 30.7 52 -9.4 15.1
17:05 1018 30.06 847 25.01 -0.5 31.1 51 -9.4 15.2
17:10 1018 30.06 847 25.01 -0.9 30.3 54 -9.1 15.6
17:15 1018 30.06 847 25.01 -1 30.2 54 -9.1 15.6
17:20 1018 30.06 847 25.01 -1.1 30 55 -9 15.8
17:25 1018 30.06 847 25.01 -1.1 30 55 -9.1 15.7
17:30 1018 30.06 847 25.01 -1.1 30 54 -9.2 15.5
17:35 1018 30.06 847 25.01 -1.1 29.9 55 -9 15.7
17:40 1018 30.06 847 25.01 -1.1 30 55 -9 15.8
17:45 1018 30.06 847 25.01 -1.1 30 55 -9.1 15.7
17:50 1018 30.06 847 25.01 -1.1 30 55 -9.1 15.6
17:55 1018 30.06 847 25.01 -1.1 30.1 54 -9.1 15.5
18:00 1018 30.06 848 25.04 -1.2 29.9 55 -9.2 15.4
18:05 1018 30.06 848 25.04 -1.3 29.7 54 -9.4 15.1
18:10 1018 30.06 848 25.04 -1.3 29.7 54 -9.4 15.1
18:15 1019 30.09 848 25.04 -1.2 29.9 54 -9.2 15.4
18:20 1019 30.09 848 25.04 -1.3 29.6 57 -8.9 16.1
18:25 1019 30.09 848 25.04 -2 28.4 61 -8.6 16.6
18:30 1019 30.09 848 25.04 -2.3 27.9 63 -8.3 17
18:35 1019 30.09 848 25.04 -2.6 27.4 64 -8.5 16.7
18:40 1019 30.09 848 25.04 -2.6 27.4 64 -8.4 16.9
18:45 1019 30.09 848 25.04 -2.5 27.4 65 -8.3 17.1
18:50 1019 30.09 848 25.04 -2.5 27.5 64 -8.3 17
18:55 1019 30.09 848 25.04 -2.3 27.8 64 -8.3 17.1
19:00 1019 30.09 848 25.04 -2.1 28.2 62 -8.4 16.9
19:05 1019 30.09 848 25.04 -1.9 28.6 61 -8.4 16.9
19:10 1019 30.09 848 25.04 -1.9 28.5 62 -8.3 17.1
19:15 1019 30.09 848 25.04 -1.9 28.7 62 -8.2 17.2
19:20 1019 30.09 848 25.04 -1.9 28.6 63 -8.1 17.4
19:25 1019 30.09 849 25.07 -1.9 28.5 63 -8.1 17.4
19:30 1019 30.09 849 25.07 -1.9 28.5 62 -8.3 17.1
19:35 1019 30.09 849 25.07 -2 28.4 60 -8.7 16.4
19:40 1020 30.12 849 25.07 -2.1 28.2 60 -8.9 16
19:45 1020 30.12 849 25.07 -2 28.3 58 -9.2 15.5
19:50 1020 30.12 849 25.07 -2 28.4 57 -9.5 14.9
19:55 1020 30.12 849 25.07 -2 28.3 57 -9.5 14.9
20:00 1020 30.12 849 25.07 -2.1 28.3 58 -9.3 15.2
20:05 1020 30.12 849 25.07 -2.1 28.2 59 -9.1 15.6
20:10 1020 30.12 849 25.07 -2.1 28.2 58 -9.3 15.3
20:15 1020 30.12 849 25.07 -2.3 27.9 62 -8.6 16.5
20:20 1020 30.12 849 25.07 -2.5 27.5 62 -8.9 16
20:25 1020 30.12 849 25.07 -2.7 27.1 62 -9.1 15.6
20:30 1020 30.12 849 25.07 -2.7 27.2 60 -9.4 15
20:35 1020 30.12 849 25.07 -2.4 27.6 58 -9.6 14.8
20:40 1020 30.12 849 25.07 -2.3 27.9 59 -9.3 15.3
20:45 1020 30.12 849 25.07 -2.3 27.8 58 -9.4 15
20:50 1020 30.12 849 25.07 -2.2 28 57 -9.7 14.6
20:55 1020 30.12 850 25.1 -2.3 27.9 56 -10 14
21:00 1020 30.12 850 25.1 -2.3 27.9 55 -10.1 13.9
21:05 1020 30.12 850 25.1 -2.2 28 57 -9.7 14.6
21:10 1021 30.15 850 25.1 -2.2 28 56 -9.8 14.4
21:15 1021 30.15 850 25.1 -2.2 28 54 -10.4 13.3
21:20 1021 30.15 850 25.1 -2.2 28.1 55 -10.1 13.7
21:25 1021 30.15 850 25.1 -2.2 28.1 55 -10 14
21:30 1021 30.15 850 25.1 -2.2 28 54 -10.2 13.6
21:35 1021 30.15 850 25.1 -2.2 28 54 -10.3 13.4
21:40 1021 30.15 850 25.1 -2.2 28.1 55 -10.1 13.9
21:45 1021 30.15 850 25.1 -2.3 27.9 56 -10 14
21:50 1021 30.15 850 25.1 -2.4 27.7 56 -9.9 14.1
21:55 1021 30.15 850 25.1 -2.4 27.6 56 -10 13.9
22:00 1021 30.15 850 25.1 -2.6 27.4 58 -9.7 14.5
22:05 1021 30.15 850 25.1 -2.9 26.8 60 -9.7 14.5
22:10 1021 30.15 850 25.1 -3.1 26.5 61 -9.6 14.8
22:15 1021 30.15 850 25.1 -3.1 26.5 62 -9.4 15.1
22:20 1021 30.15 850 25.1 -2.8 26.9 61 -9.5 15
22:25 1021 30.15 850 25.1 -2.8 27 60 -9.5 15
22:30 1021 30.15 850 25.1 -2.8 27 59 -9.7 14.5
22:35 1021 30.15 850 25.1 -2.8 26.9 60 -9.4 15
22:40 1021 30.15 850 25.1 -2.9 26.8 61 -9.4 15.1
22:45 1021 30.15 850 25.1 -2.8 26.9 60 -9.5 14.9
22:50 1021 30.15 850 25.1 -2.7 27.2 59 -9.6 14.7
22:55 1021 30.15 850 25.1 -2.7 27.1 59 -9.6 14.8
23:00 1021 30.15 850 25.1 -2.8 26.9 60 -9.6 14.7
23:05 1021 30.15 850 25.1 -2.9 26.8 62 -9.3 15.3
23:10 1021 30.15 850 25.1 -3.1 26.5 61 -9.5 14.9
23:15 1021 30.15 850 25.1 -3 26.6 60 -9.7 14.5
23:20 1021 30.15 850 25.1 -3.1 26.4 61 -9.6 14.6
23:25 1021 30.15 850 25.1 -3.2 26.3 61 -9.7 14.5
23:30 1021 30.15 850 25.1 -3.3 26.1 61 -9.8 14.3
23:35 1021 30.15 850 25.1 -3.4 25.9 60 -10 14.1
23:40 1021 30.15 850 25.1 -3.4 25.9 60 -10.1 13.7
23:45 1021 30.15 850 25.1 -3.5 25.8 60 -10.2 13.7
23:50 1021 30.15 850 25.1 -3.5 25.8 59 -10.3 13.5
23:55 1021 30.15 850 25.1 -3.6 25.5 60 -10.4 13.3
24:00 1021 30.15 850 25.1 -3.6 25.4 60 -10.4 13.3